Ana Sayfa
METAR-TAF:

METAR-TAF

Havaalanları :

Koltsovo Havalimanı

Yekaterinburg, Rusya

Enlem: 56-50N, Boylam: 060-38E, yükseklik: 237 m

Güncel hava durumu gözlemi

Rapor saat 07:00 UTC de 24 dakika önce yapıldı.
Rüzgar batıdan 6 kt, güney/güneybatı ve kuzeybatı arasında değişken
Sıcaklık 16°C
Nem 21%
Basınç 1027 hPa
Görüş mesafesi 10 km veya daha fazla
1500 m altında bulut yok ve kümülonimbus yok

METAR: USSS 230700Z 27003MPS 210V320 CAVOK 16/M06 Q1027 R26R/010060 NOSIG RMK QFE749/0999

Saat: 12:24 (07:24 UTC)

Tahmin

Rapor saat 04:59 UTC de 2 saat ve 25 dakika önce yapıldı.
Ayın 23'si saat 06 UTC'den ayın 24'si saat 06 UTC'ye kadar geçerli Tahmin
Rüzgar kuzeybatıdan 10 kt
Görüş mesafesi 10 km veya daha fazla
1500 m altında bulut yok ve kümülonimbus yok

TAF: USSS 230459Z 2306/2406 32005MPS CAVOK

4.000'den fazla havaalanı için hava durumu gözlemleri ve tahminleri (METAR ve TAF raporları).

Kullanılabilir istasyonlar harita üzerinde sarı ve kırmızı noktalarla gösterilir.

İstasyonun adını görmek için fareyi noktanın üzerinde gezdirin.

Sonrasında hava gözlem ve tahminlerini görmek için tıklayın.

Haritayı değiştirmek için: yaklaştırmak için siyah artı işaretli yeşil düğmeye ve uzaklaştırmak için de eksi işaretli düğmeye hızla tıklayın; bitişik haritalar için yeşil okları kullanın.


METAR-TAF: